createdAt,value
2018-08-18T00:00:08.063Z,99.90
2018-08-18T00:02:37.934Z,99.90
2018-08-18T00:05:07.875Z,99.90
2018-08-18T00:07:36.411Z,99.90
2018-08-18T00:10:07.130Z,99.90
2018-08-18T00:12:35.611Z,99.90
2018-08-18T00:15:04.980Z,99.90
2018-08-18T00:17:33.870Z,99.90
2018-08-18T00:20:03.039Z,99.90
2018-08-18T00:22:31.525Z,99.90
2018-08-18T00:24:59.974Z,99.90
2018-08-18T00:27:28.513Z,99.90
2018-08-18T00:30:02.564Z,99.90
2018-08-18T00:32:31.397Z,99.90
2018-08-18T00:34:59.854Z,99.90
2018-08-18T00:37:28.371Z,99.90
2018-08-18T00:39:57.303Z,99.90
2018-08-18T00:42:25.749Z,99.90
2018-08-18T00:44:54.383Z,99.90
2018-08-18T00:47:23.543Z,99.90
2018-08-18T00:49:51.968Z,99.90
2018-08-18T00:52:20.446Z,99.90
2018-08-18T00:54:49.342Z,99.90
2018-08-18T00:57:25.218Z,99.90
2018-08-18T00:59:54.821Z,99.90
2018-08-18T01:02:23.999Z,99.90
2018-08-18T01:04:55.982Z,99.90
2018-08-18T01:07:25.910Z,99.90
2018-08-18T01:09:54.555Z,99.90
2018-08-18T01:12:23.981Z,99.90
2018-08-18T01:14:52.800Z,99.90
2018-08-18T01:17:22.055Z,99.90
2018-08-18T01:19:53.511Z,99.90
2018-08-18T01:22:22.023Z,99.90
2018-08-18T01:24:51.342Z,99.90
2018-08-18T01:27:20.047Z,99.90
2018-08-18T01:30:04.848Z,99.90
2018-08-18T01:32:34.494Z,99.90
2018-08-18T01:35:03.035Z,99.90
2018-08-18T01:37:32.575Z,99.90
2018-08-18T01:40:01.337Z,99.90
2018-08-18T01:42:32.259Z,99.90
2018-08-18T01:45:00.766Z,99.90
2018-08-18T01:47:29.323Z,99.90
2018-08-18T01:49:59.168Z,99.90
2018-08-18T01:52:27.601Z,99.90
2018-08-18T01:54:56.037Z,99.90
2018-08-18T01:57:24.500Z,99.90
2018-08-18T01:59:52.955Z,99.90
2018-08-18T02:02:25.462Z,99.90
2018-08-18T02:04:54.494Z,99.90
2018-08-18T02:07:26.931Z,99.90
2018-08-18T02:09:55.743Z,99.90
2018-08-18T02:12:25.379Z,99.90
2018-08-18T02:14:54.623Z,99.90
2018-08-18T02:17:32.179Z,99.90
2018-08-18T02:20:00.793Z,99.90
2018-08-18T02:22:31.347Z,99.90
2018-08-18T02:24:59.871Z,99.90
2018-08-18T02:27:28.363Z,99.90
2018-08-18T02:30:07.943Z,99.90
2018-08-18T02:32:38.648Z,99.90
2018-08-18T02:35:07.598Z,99.90
2018-08-18T02:37:35.710Z,99.90
2018-08-18T02:40:08.663Z,99.90
2018-08-18T02:42:37.572Z,99.90
2018-08-18T02:45:07.003Z,99.90
2018-08-18T02:47:35.491Z,99.90
2018-08-18T02:50:04.355Z,99.90
2018-08-18T02:52:33.694Z,99.90
2018-08-18T02:55:04.264Z,99.90
2018-08-18T02:57:33.962Z,99.90
2018-08-18T03:00:03.463Z,99.90
2018-08-18T03:02:32.310Z,99.90
2018-08-18T03:05:00.790Z,99.90
2018-08-18T03:07:34.911Z,99.90
2018-08-18T03:10:10.587Z,99.90
2018-08-18T03:12:43.991Z,99.90
2018-08-18T03:15:19.590Z,99.90
2018-08-18T03:17:48.028Z,99.90
2018-08-18T03:20:16.482Z,99.90
2018-08-18T03:22:45.542Z,99.90
2018-08-18T03:25:14.056Z,99.90
2018-08-18T03:27:42.534Z,99.90
2018-08-18T03:30:11.004Z,99.90
2018-08-18T03:32:39.442Z,99.90
2018-08-18T03:35:07.899Z,99.90
2018-08-18T03:37:36.339Z,99.90
2018-08-18T03:40:05.434Z,99.90
2018-08-18T03:42:41.145Z,99.90
2018-08-18T03:45:09.969Z,99.90
2018-08-18T03:47:38.419Z,99.90
2018-08-18T03:50:07.277Z,99.90
2018-08-18T03:52:36.571Z,99.90
2018-08-18T03:55:05.095Z,99.90
2018-08-18T03:57:48.189Z,99.90
2018-08-18T04:00:17.870Z,99.90
2018-08-18T04:02:46.903Z,99.90
2018-08-18T04:05:15.420Z,99.90
2018-08-18T04:07:46.746Z,99.90
2018-08-18T04:10:15.251Z,99.90
2018-08-18T04:12:43.709Z,99.90
2018-08-18T04:15:12.350Z,99.90
2018-08-18T04:17:40.794Z,99.90
2018-08-18T04:20:09.260Z,99.90
2018-08-18T04:22:37.739Z,99.90
2018-08-18T04:25:06.299Z,99.90
2018-08-18T04:27:41.779Z,99.90
2018-08-18T04:30:12.436Z,99.90
2018-08-18T04:32:58.787Z,99.90
2018-08-18T04:35:28.259Z,99.90
2018-08-18T04:37:58.235Z,99.90
2018-08-18T04:40:26.887Z,99.90
2018-08-18T04:42:56.904Z,99.90
2018-08-18T04:45:25.411Z,99.90
2018-08-18T04:47:53.850Z,99.90
2018-08-18T04:50:22.755Z,99.90
2018-08-18T04:52:52.898Z,99.90
2018-08-18T04:55:21.431Z,99.90
2018-08-18T04:57:49.916Z,99.90
2018-08-18T05:00:18.453Z,99.90
2018-08-18T05:02:52.164Z,99.90
2018-08-18T05:05:25.732Z,99.90
2018-08-18T05:07:54.177Z,99.90
2018-08-18T05:10:22.655Z,99.90
2018-08-18T05:12:51.786Z,99.90
2018-08-18T05:15:20.229Z,99.90
2018-08-18T05:17:49.925Z,99.90
2018-08-18T05:20:22.575Z,99.90
2018-08-18T05:22:51.031Z,99.90
2018-08-18T05:25:26.308Z,99.90
2018-08-18T05:27:55.407Z,99.90
2018-08-18T05:30:24.641Z,99.90
2018-08-18T05:32:54.160Z,99.90
2018-08-18T05:35:22.915Z,99.90
2018-08-18T05:37:51.719Z,99.90
2018-08-18T05:40:20.515Z,99.90
2018-08-18T05:42:48.970Z,99.90
2018-08-18T05:45:27.147Z,99.90
2018-08-18T05:47:56.015Z,99.90
2018-08-18T05:50:26.034Z,99.90
2018-08-18T05:53:00.566Z,99.90
2018-08-18T05:55:29.370Z,99.90
2018-08-18T05:57:57.804Z,99.90
2018-08-18T06:00:26.339Z,99.90
2018-08-18T06:02:58.666Z,99.90
2018-08-18T06:05:30.175Z,99.90
2018-08-18T06:07:59.661Z,99.90
2018-08-18T06:10:28.134Z,99.90
2018-08-18T06:12:58.383Z,99.90
2018-08-18T06:15:27.172Z,99.90
2018-08-18T06:17:55.672Z,99.90
2018-08-18T06:20:24.147Z,99.90
2018-08-18T06:22:52.594Z,99.90
2018-08-18T06:25:21.126Z,99.90
2018-08-18T06:27:49.574Z,99.90
2018-08-18T06:30:19.570Z,99.90
2018-08-18T06:32:48.135Z,99.90
2018-08-18T06:35:16.639Z,99.90
2018-08-18T06:37:50.938Z,99.90
2018-08-18T06:40:19.424Z,99.90
2018-08-18T06:42:47.941Z,99.90
2018-08-18T06:45:19.850Z,99.90
2018-08-18T06:47:48.367Z,99.90
2018-08-18T06:50:18.112Z,99.90
2018-08-18T06:52:47.170Z,99.90
2018-08-18T06:55:19.043Z,99.90
2018-08-18T06:57:50.685Z,99.90
2018-08-18T07:00:21.039Z,99.90
2018-08-18T07:02:50.712Z,99.90
2018-08-18T07:05:20.242Z,99.90
2018-08-18T07:07:49.563Z,99.90
2018-08-18T07:10:30.750Z,99.90
2018-08-18T07:13:01.496Z,99.90
2018-08-18T07:15:31.399Z,99.90
2018-08-18T07:17:59.990Z,99.90
2018-08-18T07:20:28.539Z,99.90
2018-08-18T07:22:57.415Z,99.90
2018-08-18T07:25:25.842Z,99.90
2018-08-18T07:28:00.128Z,99.90
2018-08-18T07:30:29.710Z,99.90
2018-08-18T07:33:00.090Z,99.90
2018-08-18T07:35:28.922Z,99.90
2018-08-18T07:37:57.826Z,99.90
2018-08-18T07:40:33.162Z,99.90
2018-08-18T07:43:04.566Z,99.90
2018-08-18T07:45:33.371Z,99.90
2018-08-18T07:48:02.225Z,99.90
2018-08-18T07:50:31.075Z,99.90
2018-08-18T07:52:59.718Z,99.90
2018-08-18T07:55:28.795Z,99.90
2018-08-18T07:58:12.212Z,99.90
2018-08-18T08:00:41.130Z,99.90
2018-08-18T08:03:12.016Z,99.90
2018-08-18T08:05:40.870Z,99.90
2018-08-18T08:08:09.824Z,99.90
2018-08-18T08:10:38.247Z,99.90
2018-08-18T08:13:07.031Z,99.90
2018-08-18T08:15:35.516Z,99.90
2018-08-18T08:18:03.960Z,99.90
2018-08-18T08:20:33.476Z,99.90
2018-08-18T08:23:02.813Z,99.90
2018-08-18T08:25:31.924Z,99.90
2018-08-18T08:28:00.398Z,99.90
2018-08-18T08:30:29.609Z,99.90
2018-08-18T08:32:58.132Z,99.90
2018-08-18T08:35:27.035Z,99.90
2018-08-18T08:37:55.594Z,99.90
2018-08-18T08:40:25.029Z,99.90
2018-08-18T08:42:53.845Z,99.90
2018-08-18T08:45:23.719Z,99.90
2018-08-18T08:47:52.258Z,99.90
2018-08-18T08:50:22.569Z,99.90
2018-08-18T08:52:53.101Z,99.90
2018-08-18T08:55:23.134Z,99.90
2018-08-18T08:57:51.619Z,99.90
2018-08-18T09:00:20.426Z,99.90
2018-08-18T09:02:48.927Z,99.90
2018-08-18T09:05:18.105Z,99.90
2018-08-18T09:07:46.589Z,99.90
2018-08-18T09:10:15.796Z,99.90
2018-08-18T09:12:44.778Z,99.90
2018-08-18T09:15:14.226Z,99.50
2018-08-18T09:17:42.691Z,99.90
2018-08-18T09:20:19.602Z,99.90
2018-08-18T09:22:59.687Z,99.90
2018-08-18T09:25:30.182Z,99.90
2018-08-18T09:28:00.903Z,99.90
2018-08-18T09:30:30.523Z,99.90
2018-08-18T09:33:01.910Z,99.60
2018-08-18T09:36:03.899Z,99.20
2018-08-18T09:38:32.494Z,98.30
2018-08-18T09:41:00.916Z,99.40
2018-08-18T09:43:29.758Z,98.70
2018-08-18T09:45:58.488Z,98.00
2018-08-18T09:48:27.178Z,98.10
2018-08-18T09:50:57.276Z,97.40
2018-08-18T09:53:25.821Z,97.80
2018-08-18T09:55:54.618Z,99.50
2018-08-18T09:58:23.471Z,97.40
2018-08-18T10:00:52.244Z,96.10
2018-08-18T10:03:21.074Z,95.60
2018-08-18T10:05:49.526Z,96.00
2018-08-18T10:08:17.992Z,93.90
2018-08-18T10:10:46.463Z,94.50
2018-08-18T10:13:14.914Z,94.80
2018-08-18T10:15:43.355Z,94.60
2018-08-18T10:18:11.830Z,92.70
2018-08-18T10:20:45.528Z,92.30
2018-08-18T10:23:13.999Z,93.00
2018-08-18T10:25:42.479Z,92.10
2018-08-18T10:28:10.931Z,93.60
2018-08-18T10:30:39.384Z,93.00
2018-08-18T10:33:08.588Z,93.10
2018-08-18T10:35:37.208Z,93.90
2018-08-18T10:38:06.539Z,93.70
2018-08-18T10:40:35.331Z,94.20
2018-08-18T10:43:03.834Z,93.70
2018-08-18T10:45:32.306Z,93.80
2018-08-18T10:48:00.747Z,92.20
2018-08-18T10:50:45.912Z,92.10
2018-08-18T10:53:15.083Z,92.80
2018-08-18T10:55:43.575Z,92.80
2018-08-18T10:58:17.139Z,92.90
2018-08-18T11:00:45.636Z,91.10
2018-08-18T11:03:14.609Z,90.50
2018-08-18T11:05:43.047Z,91.70
2018-08-18T11:08:11.499Z,91.10
2018-08-18T11:10:41.507Z,91.00
2018-08-18T11:13:10.342Z,92.20
2018-08-18T11:15:39.203Z,92.10
2018-08-18T11:18:07.683Z,91.20
2018-08-18T11:20:36.425Z,91.40
2018-08-18T11:23:14.590Z,91.40
2018-08-18T11:25:46.402Z,92.10
2018-08-18T11:28:15.648Z,92.30
2018-08-18T11:30:44.258Z,92.40
2018-08-18T11:33:26.430Z,90.70
2018-08-18T11:35:54.914Z,91.20
2018-08-18T11:38:23.387Z,91.00
2018-08-18T11:40:51.856Z,90.60
2018-08-18T11:43:20.500Z,88.10
2018-08-18T11:45:48.955Z,90.20
2018-08-18T11:48:23.202Z,91.40
2018-08-18T11:50:54.911Z,90.50
2018-08-18T11:53:24.279Z,87.60
2018-08-18T11:55:52.722Z,87.00
2018-08-18T11:58:22.330Z,88.40
2018-08-18T12:00:53.086Z,88.10
2018-08-18T12:03:24.013Z,85.40
2018-08-18T12:05:54.351Z,86.70
2018-08-18T12:08:26.895Z,85.50
2018-08-18T12:10:58.461Z,85.80
2018-08-18T12:13:33.871Z,88.20
2018-08-18T12:16:06.643Z,86.90
2018-08-18T12:18:35.535Z,87.80
2018-08-18T12:21:04.948Z,89.40
2018-08-18T12:23:40.668Z,86.30
2018-08-18T12:26:11.595Z,84.70
2018-08-18T12:28:44.052Z,88.30
2018-08-18T12:31:14.366Z,85.10
2018-08-18T12:33:44.425Z,85.00
2018-08-18T12:36:13.063Z,84.70
2018-08-18T12:38:43.762Z,85.30
2018-08-18T12:41:12.267Z,84.00
2018-08-18T12:43:42.034Z,84.10
2018-08-18T12:46:12.091Z,85.40
2018-08-18T12:48:41.624Z,83.30
2018-08-18T12:51:11.265Z,81.40
2018-08-18T12:53:45.055Z,83.30
2018-08-18T12:56:14.971Z,87.00
2018-08-18T12:58:43.857Z,84.00
2018-08-18T13:01:13.080Z,84.60
2018-08-18T13:03:42.340Z,85.60
2018-08-18T13:06:10.806Z,85.50
2018-08-18T13:08:39.291Z,83.30
2018-08-18T13:11:08.475Z,84.50
2018-08-18T13:13:36.940Z,84.60
2018-08-18T13:16:05.411Z,86.30
2018-08-18T13:18:34.237Z,86.50
2018-08-18T13:21:03.417Z,87.90
2018-08-18T13:23:31.863Z,83.60
2018-08-18T13:26:00.319Z,85.80
2018-08-18T13:28:28.825Z,86.00
2018-08-18T13:30:57.302Z,84.90
2018-08-18T13:33:25.795Z,83.00
2018-08-18T13:35:54.272Z,83.40
2018-08-18T13:38:29.339Z,83.40
2018-08-18T13:40:58.534Z,83.50
2018-08-18T13:43:40.943Z,82.90
2018-08-18T13:46:11.263Z,82.10
2018-08-18T13:48:43.499Z,84.40
2018-08-18T13:51:12.017Z,82.50
2018-08-18T13:53:49.773Z,82.10
2018-08-18T13:56:18.269Z,82.60
2018-08-18T13:58:49.116Z,81.70
2018-08-18T14:01:29.277Z,82.10
2018-08-18T14:03:58.455Z,81.50
2018-08-18T14:06:26.887Z,81.80
2018-08-18T14:09:01.092Z,82.40
2018-08-18T14:11:30.339Z,82.00
2018-08-18T14:14:01.123Z,83.40
2018-08-18T14:16:31.015Z,81.30
2018-08-18T14:18:59.731Z,81.90
2018-08-18T14:21:28.544Z,81.50
2018-08-18T14:23:57.314Z,82.90
2018-08-18T14:26:25.807Z,80.10
2018-08-18T14:28:54.251Z,79.80
2018-08-18T14:31:22.762Z,79.30
2018-08-18T14:33:51.389Z,78.90
2018-08-18T14:36:20.458Z,78.50
2018-08-18T14:38:48.940Z,79.70
2018-08-18T14:41:35.983Z,79.60
2018-08-18T14:44:05.822Z,81.30
2018-08-18T14:46:34.750Z,81.10
2018-08-18T14:49:03.339Z,81.50
2018-08-18T14:51:31.806Z,82.00
2018-08-18T14:54:00.312Z,81.50
2018-08-18T14:56:28.903Z,80.50
2018-08-18T14:58:57.448Z,80.40
2018-08-18T15:01:26.272Z,83.00
2018-08-18T15:03:54.761Z,78.10
2018-08-18T15:06:23.236Z,78.70
2018-08-18T15:08:52.120Z,80.80
2018-08-18T15:11:20.659Z,79.50
2018-08-18T15:13:49.098Z,80.20
2018-08-18T15:16:17.548Z,80.80
2018-08-18T15:18:45.987Z,80.10
2018-08-18T15:21:14.545Z,80.10
2018-08-18T15:23:43.087Z,79.10
2018-08-18T15:26:11.535Z,78.30
2018-08-18T15:28:39.959Z,77.90
2018-08-18T15:31:08.442Z,77.10
2018-08-18T15:33:36.868Z,77.80
2018-08-18T15:36:10.762Z,78.60
2018-08-18T15:38:44.697Z,78.80
2018-08-18T15:41:13.232Z,78.60
2018-08-18T15:43:43.003Z,78.70
2018-08-18T15:46:11.495Z,79.70
2018-08-18T15:48:40.735Z,79.00
2018-08-18T15:51:09.335Z,77.60
2018-08-18T15:53:50.971Z,78.30
2018-08-18T15:56:20.151Z,77.40
2018-08-18T15:58:49.340Z,78.00
2018-08-18T16:01:18.823Z,78.00
2018-08-18T16:03:47.466Z,77.20
2018-08-18T16:06:15.939Z,77.90
2018-08-18T16:08:44.394Z,79.20
2018-08-18T16:11:13.035Z,77.30
2018-08-18T16:13:41.547Z,78.40
2018-08-18T16:16:10.191Z,77.40
2018-08-18T16:18:38.682Z,79.10
2018-08-18T16:21:14.751Z,79.40
2018-08-18T16:23:44.476Z,80.40
2018-08-18T16:26:13.677Z,83.40
2018-08-18T16:28:42.604Z,83.40
2018-08-18T16:31:11.462Z,82.80
2018-08-18T16:33:40.233Z,84.80
2018-08-18T16:36:09.061Z,85.20
2018-08-18T16:38:37.922Z,86.60
2018-08-18T16:41:06.463Z,87.40
2018-08-18T16:43:37.719Z,87.90
2018-08-18T16:46:20.770Z,90.40
2018-08-18T16:48:49.790Z,90.60
2018-08-18T16:51:18.278Z,91.10
2018-08-18T16:53:47.203Z,91.60
2018-08-18T16:56:21.647Z,92.30
2018-08-18T16:58:50.929Z,92.80
2018-08-18T17:01:20.034Z,94.00
2018-08-18T17:03:49.607Z,94.60
2018-08-18T17:06:18.050Z,94.90
2018-08-18T17:08:46.547Z,95.50
2018-08-18T17:11:14.994Z,95.90
2018-08-18T17:13:43.469Z,96.40
2018-08-18T17:16:11.928Z,96.80
2018-08-18T17:18:40.395Z,97.30
2018-08-18T17:21:09.074Z,97.70
2018-08-18T17:23:41.469Z,97.90
2018-08-18T17:26:10.188Z,98.10
2018-08-18T17:28:41.594Z,98.70
2018-08-18T17:31:15.054Z,99.20
2018-08-18T17:33:44.702Z,99.70
2018-08-18T17:36:16.130Z,99.30
2018-08-18T17:38:46.699Z,99.90
2018-08-18T17:41:15.302Z,99.90
2018-08-18T17:43:43.982Z,99.90
2018-08-18T17:46:13.374Z,99.90
2018-08-18T17:48:48.048Z,99.90
2018-08-18T17:51:16.839Z,99.90
2018-08-18T17:53:50.361Z,99.90
2018-08-18T17:56:19.130Z,99.90
2018-08-18T17:58:47.622Z,99.90
2018-08-18T18:01:16.099Z,99.90
2018-08-18T18:03:44.622Z,99.90
2018-08-18T18:06:13.123Z,99.90
2018-08-18T18:08:41.599Z,99.90
2018-08-18T18:11:10.065Z,99.90
2018-08-18T18:13:38.622Z,99.90
2018-08-18T18:16:19.835Z,99.90
2018-08-18T18:18:50.343Z,99.90
2018-08-18T18:21:19.026Z,99.90
2018-08-18T18:23:47.846Z,99.90
2018-08-18T18:26:18.012Z,99.90
2018-08-18T18:28:46.507Z,99.90
2018-08-18T18:31:15.300Z,99.90
2018-08-18T18:33:47.044Z,99.90
2018-08-18T18:36:15.544Z,99.90
2018-08-18T18:38:55.973Z,99.90
2018-08-18T18:41:24.431Z,99.90
2018-08-18T18:44:00.803Z,99.90
2018-08-18T18:46:29.253Z,99.90
2018-08-18T18:48:57.949Z,99.90
2018-08-18T18:51:26.543Z,99.90
2018-08-18T18:53:57.334Z,99.90
2018-08-18T18:56:25.906Z,99.90
2018-08-18T18:58:54.366Z,99.90
2018-08-18T19:01:23.159Z,99.90
2018-08-18T19:03:52.052Z,99.90
2018-08-18T19:06:20.534Z,99.90
2018-08-18T19:09:04.428Z,99.90
2018-08-18T19:11:32.887Z,99.90
2018-08-18T19:14:01.354Z,99.90
2018-08-18T19:16:30.141Z,99.90
2018-08-18T19:18:58.667Z,99.90
2018-08-18T19:21:31.460Z,99.90
2018-08-18T19:24:01.131Z,99.90
2018-08-18T19:26:53.286Z,99.90
2018-08-18T19:29:24.191Z,99.90
2018-08-18T19:31:54.118Z,99.90
2018-08-18T19:34:22.675Z,99.90
2018-08-18T19:37:07.844Z,99.90
2018-08-18T19:39:37.196Z,99.90
2018-08-18T19:42:11.828Z,99.90
2018-08-18T19:44:42.369Z,99.90
2018-08-18T19:47:11.040Z,99.90
2018-08-18T19:49:43.987Z,99.90
2018-08-18T19:52:13.498Z,99.90
2018-08-18T19:54:47.768Z,99.90
2018-08-18T19:57:27.447Z,99.90
2018-08-18T20:00:26.371Z,99.90
2018-08-18T20:03:00.375Z,99.90
2018-08-18T20:05:28.903Z,99.90
2018-08-18T20:07:57.522Z,99.90
2018-08-18T20:10:25.999Z,99.90
2018-08-18T20:12:54.446Z,99.90
2018-08-18T20:15:23.262Z,99.90
2018-08-18T20:17:51.751Z,99.90
2018-08-18T20:20:21.740Z,99.90
2018-08-18T20:22:50.323Z,99.90
2018-08-18T20:25:18.912Z,99.90
2018-08-18T20:27:47.605Z,99.90
2018-08-18T20:30:16.505Z,99.90
2018-08-18T20:32:45.010Z,99.90
2018-08-18T20:35:13.660Z,99.90
2018-08-18T20:37:42.155Z,99.90
2018-08-18T20:40:10.959Z,99.90
2018-08-18T20:42:39.459Z,99.90
2018-08-18T20:45:09.263Z,99.90
2018-08-18T20:47:37.718Z,99.90
2018-08-18T20:50:08.786Z,99.90
2018-08-18T20:52:37.271Z,99.90
2018-08-18T20:55:06.119Z,99.90
2018-08-18T20:57:34.578Z,99.90
2018-08-18T21:00:03.149Z,99.90
2018-08-18T21:02:31.801Z,99.90
2018-08-18T21:05:02.480Z,99.90
2018-08-18T21:07:31.881Z,99.90
2018-08-18T21:10:01.069Z,99.90
2018-08-18T21:12:34.698Z,99.90
2018-08-18T21:15:03.278Z,99.90
2018-08-18T21:17:31.823Z,99.90
2018-08-18T21:20:00.262Z,99.90
2018-08-18T21:22:30.773Z,99.90
2018-08-18T21:24:59.727Z,99.90
2018-08-18T21:27:28.171Z,99.90
2018-08-18T21:29:57.534Z,99.90
2018-08-18T21:32:27.511Z,99.90
2018-08-18T21:34:56.047Z,99.90
2018-08-18T21:37:24.592Z,99.90
2018-08-18T21:39:53.492Z,99.90
2018-08-18T21:42:21.994Z,99.90
2018-08-18T21:44:54.462Z,99.90
2018-08-18T21:47:22.930Z,99.90
2018-08-18T21:49:51.430Z,99.90
2018-08-18T21:52:19.864Z,99.90
2018-08-18T21:54:48.334Z,99.90
2018-08-18T21:57:16.818Z,99.90
2018-08-18T21:59:52.417Z,99.90
2018-08-18T22:02:33.104Z,99.90
2018-08-18T22:05:01.870Z,99.90
2018-08-18T22:07:39.175Z,99.90
2018-08-18T22:10:08.922Z,99.90
2018-08-18T22:12:37.812Z,99.90
2018-08-18T22:15:22.310Z,99.90
2018-08-18T22:17:51.826Z,99.90
2018-08-18T22:20:21.314Z,99.90
2018-08-18T22:22:50.199Z,99.90
2018-08-18T22:25:18.846Z,99.90
2018-08-18T22:27:51.540Z,99.90
2018-08-18T22:30:20.112Z,99.90
2018-08-18T22:32:48.570Z,99.90
2018-08-18T22:35:17.069Z,99.90
2018-08-18T22:37:45.534Z,99.90
2018-08-18T22:40:14.352Z,99.90
2018-08-18T22:42:42.803Z,99.90
2018-08-18T22:45:23.827Z,99.90
2018-08-18T22:47:52.315Z,99.90
2018-08-18T22:50:20.837Z,99.90
2018-08-18T22:52:50.670Z,99.90
2018-08-18T22:55:19.357Z,99.90
2018-08-18T22:57:52.087Z,99.90
2018-08-18T23:00:21.623Z,99.90
2018-08-18T23:02:50.153Z,99.90
2018-08-18T23:05:19.444Z,99.90
2018-08-18T23:07:50.211Z,99.90
2018-08-18T23:10:18.671Z,99.90
2018-08-18T23:12:47.140Z,99.90
2018-08-18T23:15:15.590Z,99.90
2018-08-18T23:17:44.055Z,99.90
2018-08-18T23:20:12.879Z,99.90
2018-08-18T23:22:54.610Z,99.90
2018-08-18T23:25:26.628Z,99.90
2018-08-18T23:27:55.486Z,99.90
2018-08-18T23:30:28.176Z,99.90
2018-08-18T23:32:56.688Z,99.90
2018-08-18T23:35:26.471Z,99.90
2018-08-18T23:37:55.163Z,99.90
2018-08-18T23:40:24.003Z,99.90
2018-08-18T23:42:52.551Z,99.90
2018-08-18T23:45:21.099Z,99.90
2018-08-18T23:47:56.258Z,99.90
2018-08-18T23:50:25.950Z,99.90
2018-08-18T23:53:02.002Z,99.90
2018-08-18T23:55:31.311Z,99.90
2018-08-18T23:58:00.644Z,99.90
